Time;durP1;ratioP1;P1;durP2;ratioP2;P2;SDS_P1;SDS_P2;PMS_P1;PMS_P2;Temp;Humidity;BMP_temperature;BMP_pressure;BME280_temperature;BME280_humidity;BME280_pressure;Samples;Min_cycle;Max_cycle;Signal;HPM_P1;HPM_P2
2023/05/02 00:00:31;;;;;;;21.23;12.38;;;12.30;99.90;;;;;;5008548;28;20121;-86
2023/05/02 00:02:57;;;;;;;22.27;13.43;;;12.30;99.90;;;;;;5008865;28;20442;-86
2023/05/02 00:05:23;;;;;;;22.83;11.18;;;12.30;99.90;;;;;;4992022;28;20495;-86
2023/05/02 00:07:50;;;;;;;21.30;13.02;;;12.30;99.90;;;;;;5009250;28;20041;-86
2023/05/02 00:10:16;;;;;;;20.25;11.18;;;12.30;99.90;;;;;;5008072;28;20046;-86
2023/05/02 00:12:41;;;;;;;26.55;19.85;;;12.40;99.90;;;;;;5008832;28;20088;-86
2023/05/02 00:15:08;;;;;;;20.45;11.55;;;12.50;99.90;;;;;;5008139;28;20119;-86
2023/05/02 00:17:33;;;;;;;21.35;10.40;;;12.50;99.90;;;;;;5008320;28;20080;-86
2023/05/02 00:19:59;;;;;;;22.10;11.23;;;12.40;99.90;;;;;;5008227;28;20037;-86
2023/05/02 00:22:24;;;;;;;23.50;11.65;;;12.40;99.90;;;;;;4992124;28;20057;-86
2023/05/02 00:24:54;;;;;;;20.10;11.18;;;12.40;99.90;;;;;;5008491;28;20130;-86
2023/05/02 00:27:20;;;;;;;23.33;18.00;;;12.40;99.90;;;;;;4991470;28;20117;-86
2023/05/02 00:29:46;;;;;;;21.15;12.07;;;12.50;99.90;;;;;;5008187;28;20120;-86
2023/05/02 00:32:12;;;;;;;21.40;11.48;;;12.50;99.90;;;;;;5008636;28;20065;-86
2023/05/02 00:34:38;;;;;;;20.70;10.48;;;12.50;99.90;;;;;;5009274;28;20077;-86
2023/05/02 00:37:03;;;;;;;19.85;11.25;;;12.50;99.90;;;;;;5007810;28;20034;-86
2023/05/02 00:39:29;;;;;;;20.05;9.98;;;12.50;99.90;;;;;;5009196;28;20038;-86
2023/05/02 00:41:58;;;;;;;18.45;8.65;;;12.50;99.90;;;;;;5009524;28;20411;-86
2023/05/02 00:44:23;;;;;;;16.38;7.78;;;12.50;99.90;;;;;;4992478;28;20048;-86
2023/05/02 00:46:49;;;;;;;14.52;8.07;;;12.50;99.90;;;;;;4992856;28;20408;-86
2023/05/02 00:49:15;;;;;;;14.68;7.57;;;12.50;99.90;;;;;;5011740;28;20046;-86
2023/05/02 00:51:41;;;;;;;16.95;7.22;;;12.50;99.90;;;;;;5013330;28;20076;-86
2023/05/02 00:54:06;;;;;;;17.88;12.02;;;12.50;99.90;;;;;;5012881;28;20041;-86
2023/05/02 00:56:32;;;;;;;12.43;5.53;;;12.50;99.90;;;;;;5011484;28;20040;-86
2023/05/02 00:59:00;;;;;;;10.80;4.90;;;12.50;99.90;;;;;;5012752;28;20057;-86
2023/05/02 01:01:44;;;;;;;10.63;4.32;;;12.40;99.90;;;;;;4995591;28;20037;-86
2023/05/02 01:04:27;;;;;;;11.40;4.43;;;12.30;99.90;;;;;;5012807;28;20038;-86
2023/05/02 01:07:32;;;;;;;10.48;4.85;;;12.30;99.90;;;;;;4996070;28;20033;-86
2023/05/02 01:10:03;;;;;;;8.60;3.42;;;12.30;99.90;;;;;;4995845;28;20103;-86
2023/05/02 01:12:42;;;;;;;9.65;3.13;;;12.30;99.90;;;;;;4996632;28;20038;-86
2023/05/02 01:15:13;;;;;;;6.75;2.65;;;12.20;99.90;;;;;;5011654;28;20063;-86
2023/05/02 01:17:41;;;;;;;9.38;3.25;;;12.20;99.90;;;;;;5011486;28;20058;-87
2023/05/02 01:20:12;;;;;;;7.68;2.50;;;12.10;99.90;;;;;;5011125;28;20042;-86
2023/05/02 01:22:42;;;;;;;7.60;3.47;;;12.10;99.90;;;;;;5011631;28;20069;-86
2023/05/02 01:25:38;;;;;;;8.02;2.83;;;12.20;99.90;;;;;;5011805;28;20050;-86
2023/05/02 01:28:15;;;;;;;7.75;2.60;;;12.10;99.90;;;;;;5011229;28;20045;-86
2023/05/02 01:30:44;;;;;;;10.35;3.03;;;12.10;99.90;;;;;;5012045;28;20108;-86
2023/05/02 01:33:12;;;;;;;12.23;3.85;;;12.10;99.90;;;;;;4994738;28;20038;-86
2023/05/02 01:35:39;;;;;;;10.07;3.53;;;12.00;99.90;;;;;;5012473;28;20041;-86
2023/05/02 01:38:06;;;;;;;9.57;3.42;;;12.00;99.90;;;;;;5011693;28;20042;-86
2023/05/02 01:40:33;;;;;;;9.63;3.20;;;12.00;99.90;;;;;;4994689;28;20442;-86
2023/05/02 01:43:03;;;;;;;10.10;3.17;;;12.00;99.90;;;;;;5011515;28;20100;-86
2023/05/02 01:45:31;;;;;;;9.82;3.20;;;12.00;99.90;;;;;;5010677;28;20050;-86
2023/05/02 01:47:59;;;;;;;8.30;2.60;;;12.00;99.90;;;;;;4995153;28;20085;-86
2023/05/02 01:50:26;;;;;;;10.60;3.38;;;11.90;99.90;;;;;;5011432;28;20038;-86
2023/05/02 01:52:53;;;;;;;8.35;2.50;;;11.90;99.90;;;;;;4994490;28;20171;-86
2023/05/02 01:55:19;;;;;;;7.50;2.10;;;11.90;99.90;;;;;;4994985;28;20053;-86
2023/05/02 01:57:47;;;;;;;7.18;2.10;;;11.90;99.90;;;;;;5011078;28;20046;-86
2023/05/02 02:00:16;;;;;;;7.68;2.20;;;11.90;99.90;;;;;;5009316;28;20030;-86
2023/05/02 02:02:44;;;;;;;7.30;2.13;;;11.80;99.90;;;;;;5010867;28;20049;-86
2023/05/02 02:05:11;;;;;;;7.45;2.22;;;11.80;99.90;;;;;;5010090;28;20124;-86
2023/05/02 02:07:37;;;;;;;8.95;2.30;;;11.70;99.90;;;;;;5010114;28;20200;-86
2023/05/02 02:10:03;;;;;;;9.70;2.67;;;11.70;99.90;;;;;;5009613;28;20602;-86
2023/05/02 02:12:40;;;;;;;9.82;2.28;;;11.70;99.90;;;;;;5010732;28;20044;-86
2023/05/02 02:15:14;;;;;;;7.05;2.10;;;11.70;99.90;;;;;;5010451;28;20061;-86
2023/05/02 02:17:54;;;;;;;9.35;2.13;;;11.70;99.90;;;;;;5009986;28;20060;-86
2023/05/02 02:20:21;;;;;;;9.35;2.13;;;11.70;99.90;;;;;;4994658;28;20061;-86
2023/05/02 02:22:47;;;;;;;6.63;2.20;;;11.70;99.90;;;;;;4993592;28;20041;-86
2023/05/02 02:25:16;;;;;;;12.73;3.30;;;11.60;99.90;;;;;;5011201;28;20719;-86
2023/05/02 02:27:42;;;;;;;9.27;3.20;;;11.60;99.90;;;;;;5010425;28;20044;-86
2023/05/02 02:30:09;;;;;;;7.95;2.60;;;11.60;99.90;;;;;;5010115;28;20040;-86
2023/05/02 02:32:34;;;;;;;9.55;2.65;;;11.60;99.90;;;;;;5010572;28;20073;-86
2023/05/02 02:35:02;;;;;;;11.52;2.70;;;11.50;99.90;;;;;;5010137;28;20111;-86
2023/05/02 02:37:31;;;;;;;7.20;2.60;;;11.50;99.90;;;;;;5010906;28;20038;-86
2023/05/02 02:40:20;;;;;;;10.63;3.53;;;11.50;99.90;;;;;;5009975;28;20078;-86
2023/05/02 02:43:23;;;;;;;8.77;3.47;;;11.50;99.90;;;;;;5010298;28;20536;-86
2023/05/02 02:46:10;;;;;;;10.10;2.75;;;11.50;99.90;;;;;;5009291;28;20084;-86
2023/05/02 02:49:01;;;;;;;7.57;2.00;;;11.50;99.90;;;;;;5010701;28;20049;-86
2023/05/02 02:51:45;;;;;;;9.80;2.70;;;11.50;99.90;;;;;;4993234;28;20037;-86
2023/05/02 02:54:38;;;;;;;10.20;3.20;;;11.50;99.90;;;;;;5015038;28;20096;-86
2023/05/02 02:57:12;;;;;;;11.80;3.10;;;11.40;99.90;;;;;;4989975;28;20156;-86
2023/05/02 02:59:46;;;;;;;8.20;2.65;;;11.40;99.90;;;;;;4986420;28;20038;-86
2023/05/02 03:02:15;;;;;;;7.97;2.33;;;11.40;99.90;;;;;;5009832;28;20046;-86
2023/05/02 03:04:43;;;;;;;12.05;3.42;;;11.40;99.90;;;;;;5008858;28;20061;-86
2023/05/02 03:07:09;;;;;;;9.80;2.40;;;11.50;99.90;;;;;;5009690;28;20133;-86
2023/05/02 03:09:41;;;;;;;10.63;2.75;;;11.50;99.90;;;;;;5009105;28;20108;-86
2023/05/02 03:12:07;;;;;;;13.52;2.63;;;11.40;99.90;;;;;;4992737;28;20038;-86
2023/05/02 03:14:33;;;;;;;7.88;2.58;;;11.40;99.90;;;;;;5009692;28;20034;-86
2023/05/02 03:16:59;;;;;;;12.32;3.45;;;11.30;99.90;;;;;;5008802;28;20038;-86
2023/05/02 03:19:25;;;;;;;10.85;2.50;;;11.10;99.90;;;;;;4993128;28;20049;-87
2023/05/02 03:21:50;;;;;;;10.68;2.38;;;11.10;99.90;;;;;;4993235;28;20073;-86
2023/05/02 03:24:16;;;;;;;11.32;2.75;;;11.00;99.90;;;;;;4992405;28;20073;-86
2023/05/02 03:26:41;;;;;;;12.68;2.55;;;10.90;99.90;;;;;;5009524;28;20407;-86
2023/05/02 03:29:07;;;;;;;11.75;2.75;;;10.90;99.90;;;;;;5009024;28;20045;-86
2023/05/02 03:31:33;;;;;;;9.82;2.72;;;10.80;99.90;;;;;;4992441;28;20037;-86
2023/05/02 03:33:58;;;;;;;16.58;3.33;;;10.80;99.90;;;;;;5009509;28;20092;-86
2023/05/02 03:36:24;;;;;;;14.60;3.53;;;10.70;99.90;;;;;;4992737;28;20034;-86
2023/05/02 03:38:49;;;;;;;11.75;2.75;;;10.70;99.90;;;;;;5009035;28;20046;-86
2023/05/02 03:41:15;;;;;;;12.52;3.58;;;10.60;99.90;;;;;;4992718;28;20412;-86
2023/05/02 03:43:41;;;;;;;14.18;3.00;;;10.50;99.90;;;;;;5008422;28;20042;-86
2023/05/02 03:46:08;;;;;;;15.73;3.78;;;10.50;99.90;;;;;;5009686;28;20137;-86
2023/05/02 03:48:34;;;;;;;13.70;3.35;;;10.50;99.90;;;;;;4992867;28;20411;-86
2023/05/02 03:51:01;;;;;;;16.10;3.95;;;10.40;99.90;;;;;;5008569;28;20049;-86
2023/05/02 03:53:27;;;;;;;16.13;3.55;;;10.40;99.90;;;;;;4993415;28;20045;-86
2023/05/02 03:55:53;;;;;;;16.77;2.95;;;10.30;99.90;;;;;;5008966;28;20041;-86
2023/05/02 03:58:19;;;;;;;15.18;3.45;;;10.20;99.90;;;;;;5009364;28;20398;-86
2023/05/02 04:00:44;;;;;;;15.95;3.05;;;10.20;99.90;;;;;;4992996;28;20530;-86
2023/05/02 04:03:10;;;;;;;18.33;3.78;;;10.10;99.90;;;;;;5008596;28;20038;-86
2023/05/02 04:05:35;;;;;;;17.08;4.40;;;10.10;99.90;;;;;;5009560;28;20042;-86
2023/05/02 04:08:02;;;;;;;16.58;3.20;;;10.00;99.90;;;;;;5009007;28;20056;-86
2023/05/02 04:10:27;;;;;;;16.67;4.20;;;10.00;99.90;;;;;;5008530;28;20102;-85
2023/05/02 04:12:53;;;;;;;15.10;3.65;;;10.00;99.90;;;;;;5008899;28;20639;-86
2023/05/02 04:15:19;;;;;;;13.95;3.33;;;9.90;99.90;;;;;;4992626;28;20033;-86
2023/05/02 04:17:45;;;;;;;15.85;3.33;;;9.90;99.90;;;;;;5008457;28;20038;-86
2023/05/02 04:20:11;;;;;;;14.38;3.85;;;9.80;99.90;;;;;;5008199;28;20049;-86
2023/05/02 04:22:38;;;;;;;15.60;3.47;;;9.80;99.90;;;;;;5009611;28;20435;-85
2023/05/02 04:25:05;;;;;;;13.52;2.97;;;9.70;99.90;;;;;;5012772;28;20121;-86
2023/05/02 04:27:31;;;;;;;12.77;3.30;;;9.70;99.90;;;;;;5011810;28;20042;-86
2023/05/02 04:29:56;;;;;;;11.95;3.03;;;9.70;99.90;;;;;;4996348;28;20033;-86
2023/05/02 04:32:22;;;;;;;14.95;3.78;;;9.60;99.90;;;;;;5011973;28;20041;-86
2023/05/02 04:34:48;;;;;;;23.55;4.53;;;9.60;99.90;;;;;;5013235;28;20053;-86
2023/05/02 04:37:13;;;;;;;13.80;2.95;;;9.60;99.90;;;;;;4996032;28;20045;-85
2023/05/02 04:39:39;;;;;;;12.93;2.88;;;9.50;99.90;;;;;;5012084;28;20050;-86
2023/05/02 04:42:05;;;;;;;10.38;3.17;;;9.50;99.90;;;;;;5012683;28;20507;-86
2023/05/02 04:44:30;;;;;;;12.50;2.65;;;9.40;99.90;;;;;;5011672;28;20069;-86
2023/05/02 04:46:56;;;;;;;12.45;2.47;;;9.40;99.90;;;;;;4996685;28;20073;-86
2023/05/02 04:49:21;;;;;;;16.23;3.03;;;9.30;99.90;;;;;;4995719;28;20038;-85
2023/05/02 04:51:47;;;;;;;13.40;2.45;;;9.30;99.90;;;;;;4995458;28;20034;-86
2023/05/02 04:54:13;;;;;;;17.25;3.60;;;9.30;99.90;;;;;;5012345;28;20080;-86
2023/05/02 04:56:39;;;;;;;14.85;2.67;;;9.30;99.90;;;;;;5011510;28;20143;-86
2023/05/02 04:59:05;;;;;;;17.38;2.72;;;9.30;99.90;;;;;;5011922;28;20042;-86
2023/05/02 05:01:30;;;;;;;12.32;4.38;;;9.30;99.90;;;;;;5011629;28;20049;-86
2023/05/02 05:03:56;;;;;;;10.48;2.55;;;9.30;99.90;;;;;;5010664;28;20120;-86
2023/05/02 05:06:22;;;;;;;11.48;2.75;;;9.30;99.90;;;;;;5011924;28;20104;-86
2023/05/02 05:08:48;;;;;;;12.07;2.50;;;9.30;99.90;;;;;;5011114;28;20053;-86
2023/05/02 05:11:14;;;;;;;12.23;2.42;;;9.30;99.90;;;;;;5011116;28;20509;-86
2023/05/02 05:13:40;;;;;;;8.98;2.25;;;9.30;99.90;;;;;;5011751;28;20038;-86
2023/05/02 05:16:07;;;;;;;12.60;2.40;;;9.30;99.90;;;;;;5011191;28;20530;-86
2023/05/02 05:18:39;;;;;;;12.45;3.00;;;9.30;99.90;;;;;;5011391;28;20088;-86
2023/05/02 05:21:06;;;;;;;8.60;1.50;;;9.30;99.90;;;;;;5010933;28;20212;-86
2023/05/02 05:23:31;;;;;;;10.75;2.10;;;9.30;99.90;;;;;;5011293;28;20276;-86
2023/05/02 05:25:58;;;;;;;12.05;1.95;;;9.20;99.90;;;;;;4994843;28;20788;-86
2023/05/02 05:28:23;;;;;;;11.57;2.10;;;9.30;99.90;;;;;;5010627;28;20059;-86
2023/05/02 05:30:50;;;;;;;9.40;1.50;;;9.30;99.90;;;;;;5010892;28;20037;-86
2023/05/02 05:33:16;;;;;;;12.55;2.15;;;9.30;99.90;;;;;;5010245;28;20034;-86
2023/05/02 05:35:41;;;;;;;8.73;2.38;;;9.30;99.90;;;;;;5011519;28;20067;-86
2023/05/02 05:38:07;;;;;;;12.38;1.92;;;9.30;99.90;;;;;;5010825;28;20655;-86
2023/05/02 05:40:33;;;;;;;10.52;1.80;;;9.30;99.90;;;;;;4993687;28;20569;-86
2023/05/02 05:42:58;;;;;;;15.02;2.40;;;9.30;99.90;;;;;;5009776;28;20061;-85
2023/05/02 05:45:24;;;;;;;12.52;1.90;;;9.30;99.90;;;;;;5008639;28;20038;-86
2023/05/02 05:47:50;;;;;;;8.95;1.95;;;9.30;99.90;;;;;;4992932;28;20442;-85
2023/05/02 05:50:15;;;;;;;8.35;1.77;;;9.40;99.90;;;;;;5008776;28;20069;-86
2023/05/02 05:52:41;;;;;;;12.80;2.70;;;9.40;99.90;;;;;;5010256;28;20124;-86
2023/05/02 05:55:07;;;;;;;9.70;1.75;;;9.40;99.90;;;;;;5007739;28;20049;-86
2023/05/02 05:57:33;;;;;;;7.80;1.48;;;9.40;99.90;;;;;;5010735;28;20042;-86
2023/05/02 05:59:58;;;;;;;6.68;1.52;;;9.40;99.90;;;;;;5010909;28;20045;-85
2023/05/02 06:02:24;;;;;;;6.80;1.83;;;9.40;99.90;;;;;;5010534;28;20124;-86
2023/05/02 06:04:50;;;;;;;8.77;1.80;;;9.40;99.90;;;;;;4994265;28;20075;-86
2023/05/02 06:07:15;;;;;;;8.98;1.77;;;9.50;99.90;;;;;;5010482;28;20045;-85
2023/05/02 06:09:41;;;;;;;5.75;1.70;;;9.50;99.90;;;;;;5009559;28;20076;-86
2023/05/02 06:12:06;;;;;;;6.07;1.73;;;9.50;99.90;;;;;;5011330;28;20400;-86
2023/05/02 06:14:32;;;;;;;14.70;2.13;;;9.60;99.90;;;;;;5010430;28;20547;-86
2023/05/02 06:16:59;;;;;;;9.23;1.73;;;9.60;99.90;;;;;;5009921;28;20045;-86
2023/05/02 06:19:25;;;;;;;10.93;2.47;;;9.60;99.90;;;;;;5010551;28;20046;-86
2023/05/02 06:21:50;;;;;;;12.55;2.60;;;9.60;99.90;;;;;;5009418;28;20129;-86
2023/05/02 06:24:16;;;;;;;7.53;1.73;;;9.70;99.90;;;;;;5009138;28;20049;-86
2023/05/02 06:26:41;;;;;;;14.38;2.45;;;9.80;99.90;;;;;;5009840;28;20050;-87
2023/05/02 06:29:07;;;;;;;11.45;2.40;;;9.80;99.90;;;;;;5008976;28;20672;-86
2023/05/02 06:31:33;;;;;;;12.70;2.40;;;9.90;99.90;;;;;;5009784;28;20080;-86
2023/05/02 06:33:58;;;;;;;8.00;2.25;;;9.90;99.90;;;;;;5008876;28;20491;-86
2023/05/02 06:36:24;;;;;;;8.73;1.77;;;9.90;99.70;;;;;;5008878;28;20033;-86
2023/05/02 06:38:50;;;;;;;11.88;2.13;;;9.90;99.20;;;;;;5007650;28;20057;-85
2023/05/02 06:41:15;;;;;;;6.82;1.77;;;9.80;99.90;;;;;;4991234;28;20030;-86
2023/05/02 06:43:41;;;;;;;11.15;2.35;;;9.80;99.10;;;;;;4991945;28;20042;-86
2023/05/02 06:46:07;;;;;;;10.93;1.95;;;9.80;98.70;;;;;;5006580;28;20128;-85
2023/05/02 06:48:36;;;;;;;9.40;1.88;;;9.80;98.40;;;;;;5007913;28;20381;-85
2023/05/02 06:51:03;;;;;;;6.60;1.83;;;9.80;98.80;;;;;;5008044;28;20410;-86
2023/05/02 06:53:29;;;;;;;10.63;2.53;;;9.90;98.70;;;;;;5008018;28;20478;-86
2023/05/02 06:55:55;;;;;;;13.63;2.42;;;9.90;97.90;;;;;;4992205;28;20096;-86
2023/05/02 06:58:20;;;;;;;10.38;2.50;;;9.90;98.20;;;;;;4992420;28;20038;-86
2023/05/02 07:00:47;;;;;;;10.02;2.33;;;9.90;97.50;;;;;;5009408;28;20076;-86
2023/05/02 07:03:13;;;;;;;13.32;2.30;;;9.90;97.50;;;;;;4993782;28;20446;-86
2023/05/02 07:05:39;;;;;;;10.30;2.35;;;10.00;97.20;;;;;;5008828;28;20042;-85
2023/05/02 07:08:05;;;;;;;13.45;2.40;;;10.00;97.50;;;;;;5010803;28;20504;-86
2023/05/02 07:10:30;;;;;;;10.60;2.35;;;10.00;96.30;;;;;;5008325;28;20034;-86
2023/05/02 07:12:56;;;;;;;8.52;1.95;;;10.00;95.90;;;;;;5008437;28;20048;-85
2023/05/02 07:15:22;;;;;;;10.02;2.40;;;10.00;97.00;;;;;;5008135;28;20073;-85
2023/05/02 07:17:48;;;;;;;7.20;1.88;;;9.90;96.60;;;;;;5008648;28;20037;-86
2023/05/02 07:20:15;;;;;;;11.50;2.65;;;10.00;97.00;;;;;;4992275;28;20048;-85
2023/05/02 07:22:41;;;;;;;11.18;2.28;;;9.90;96.20;;;;;;5007722;28;20526;-86
2023/05/02 07:25:06;;;;;;;11.30;2.17;;;9.90;95.90;;;;;;5008781;28;20042;-86
2023/05/02 07:27:32;;;;;;;10.50;2.25;;;9.90;95.00;;;;;;4970173;28;1075031;-86
2023/05/02 07:29:58;;;;;;;9.38;1.90;;;9.90;95.10;;;;;;5005982;28;20065;-86
2023/05/02 07:32:24;;;;;;;12.85;2.70;;;9.90;95.50;;;;;;4990261;28;20487;-86
2023/05/02 07:34:53;;;;;;;11.07;2.33;;;9.90;94.90;;;;;;5006204;28;20129;-85
2023/05/02 07:37:19;;;;;;;12.35;2.90;;;10.00;94.90;;;;;;4990166;28;20454;-86
2023/05/02 07:39:44;;;;;;;11.38;2.55;;;10.00;94.60;;;;;;5006574;28;20046;-85
2023/05/02 07:42:10;;;;;;;15.35;2.67;;;10.00;94.40;;;;;;5005981;28;20037;-86
2023/05/02 07:44:35;;;;;;;10.25;2.67;;;10.10;94.30;;;;;;5008815;28;20038;-86
2023/05/02 07:47:01;;;;;;;12.70;2.40;;;10.10;94.20;;;;;;4992716;28;20129;-85
2023/05/02 07:49:27;;;;;;;11.10;2.15;;;10.20;93.50;;;;;;4992580;28;20508;-86
2023/05/02 07:51:52;;;;;;;11.60;2.53;;;10.20;93.00;;;;;;5008612;28;20072;-86
2023/05/02 07:54:20;;;;;;;11.35;2.85;;;10.30;92.90;;;;;;5008644;28;20042;-85
2023/05/02 07:56:46;;;;;;;10.93;1.98;;;10.30;92.10;;;;;;5008782;28;20176;-86
2023/05/02 07:59:12;;;;;;;16.55;2.28;;;10.30;91.00;;;;;;5006699;28;20078;-85
2023/05/02 08:01:38;;;;;;;9.77;2.03;;;10.30;91.10;;;;;;5007641;28;20065;-85
2023/05/02 08:04:04;;;;;;;9.63;2.40;;;10.30;91.10;;;;;;5006742;28;20042;-85
2023/05/02 08:06:31;;;;;;;10.98;2.67;;;10.30;90.70;;;;;;5007564;28;20057;-86
2023/05/02 08:08:57;;;;;;;9.35;1.90;;;10.40;90.70;;;;;;5007810;28;20563;-85
2023/05/02 08:11:24;;;;;;;11.18;2.33;;;10.30;90.40;;;;;;5008299;28;20050;-85
2023/05/02 08:13:50;;;;;;;8.40;2.30;;;10.40;90.40;;;;;;4991860;28;20549;-85
2023/05/02 08:16:16;;;;;;;9.13;2.28;;;10.40;90.10;;;;;;5007370;28;20038;-86
2023/05/02 08:18:42;;;;;;;10.77;2.63;;;10.40;90.10;;;;;;4991585;28;20037;-85
2023/05/02 08:21:07;;;;;;;11.40;2.63;;;10.40;89.60;;;;;;5007356;28;20119;-86
2023/05/02 08:23:33;;;;;;;8.75;2.35;;;10.40;89.50;;;;;;4992459;28;20038;-86
2023/05/02 08:25:59;;;;;;;8.88;2.40;;;10.40;87.70;;;;;;5006698;28;20557;-85
2023/05/02 08:28:25;;;;;;;10.10;2.15;;;10.40;88.30;;;;;;5004933;28;20042;-85
2023/05/02 08:30:50;;;;;;;11.13;2.65;;;10.40;87.90;;;;;;5005696;28;20432;-85
2023/05/02 08:33:16;;;;;;;6.97;2.13;;;10.50;87.50;;;;;;5005994;28;20034;-85
2023/05/02 08:35:42;;;;;;;8.52;2.13;;;10.50;86.70;;;;;;4990705;28;20061;-85
2023/05/02 08:38:07;;;;;;;12.85;2.05;;;10.50;85.90;;;;;;5007113;28;20171;-85
2023/05/02 08:40:37;;;;;;;9.65;2.05;;;10.60;85.40;;;;;;4990806;28;20041;-85
2023/05/02 08:43:04;;;;;;;9.60;1.98;;;10.60;84.70;;;;;;5008854;28;20060;-85
2023/05/02 08:45:36;;;;;;;7.68;1.98;;;10.60;83.20;;;;;;5008437;28;20042;-85
2023/05/02 08:48:09;;;;;;;10.60;2.30;;;10.70;83.20;;;;;;4991485;28;20034;-85
2023/05/02 08:50:45;;;;;;;9.70;2.10;;;10.80;82.80;;;;;;5007888;28;20042;-85
2023/05/02 08:53:13;;;;;;;7.13;1.98;;;10.80;81.10;;;;;;5004272;28;20096;-85
2023/05/02 08:55:40;;;;;;;12.98;2.45;;;10.90;81.60;;;;;;4984376;28;20088;-85
2023/05/02 08:58:07;;;;;;;6.88;1.90;;;11.00;80.70;;;;;;5008170;28;20399;-85
2023/05/02 09:00:38;;;;;;;10.98;2.33;;;11.10;81.00;;;;;;5007834;28;20086;-85
2023/05/02 09:03:26;;;;;;;12.30;2.17;;;11.20;80.50;;;;;;5009484;28;20049;-85
2023/05/02 09:06:06;;;;;;;11.07;2.22;;;11.30;78.30;;;;;;4988748;28;20046;-85
2023/05/02 09:08:33;;;;;;;12.52;2.10;;;11.30;79.50;;;;;;4989348;28;20043;-85
2023/05/02 09:11:00;;;;;;;9.50;2.10;;;11.50;78.90;;;;;;4989981;28;20407;-85
2023/05/02 09:13:32;;;;;;;10.75;2.60;;;11.60;78.50;;;;;;5010228;28;20045;-86
2023/05/02 09:15:59;;;;;;;8.13;2.20;;;11.70;77.90;;;;;;4993692;28;20048;-85
2023/05/02 09:18:35;;;;;;;8.82;2.10;;;11.70;77.80;;;;;;5010372;28;20434;-85
2023/05/02 09:21:05;;;;;;;7.70;2.35;;;11.80;76.90;;;;;;5010353;28;20061;-86
2023/05/02 09:23:36;;;;;;;11.90;2.42;;;11.90;77.10;;;;;;4994329;28;20046;-85
2023/05/02 09:26:13;;;;;;;10.57;2.13;;;12.00;76.90;;;;;;5010796;28;20042;-86
2023/05/02 09:28:44;;;;;;;8.05;2.20;;;12.10;76.20;;;;;;4993232;28;20121;-85
2023/05/02 09:31:13;;;;;;;10.00;3.42;;;12.20;76.20;;;;;;5010955;28;20034;-86
2023/05/02 09:33:40;;;;;;;12.13;3.60;;;12.10;75.10;;;;;;5010068;28;20080;-86
2023/05/02 09:36:07;;;;;;;5.63;2.30;;;12.20;73.00;;;;;;5010480;28;20049;-85
2023/05/02 09:38:33;;;;;;;7.50;2.15;;;12.30;73.60;;;;;;5011016;28;20194;-85
2023/05/02 09:40:59;;;;;;;9.95;2.25;;;12.30;74.20;;;;;;5010139;28;20517;-85
2023/05/02 09:43:29;;;;;;;9.13;2.17;;;12.40;73.70;;;;;;5010657;28;20056;-85
2023/05/02 09:45:56;;;;;;;9.13;2.33;;;12.40;73.10;;;;;;5010459;28;20389;-85
2023/05/02 09:48:22;;;;;;;8.93;1.90;;;12.50;73.60;;;;;;5010256;28;20042;-85
2023/05/02 09:50:47;;;;;;;5.97;1.83;;;12.50;73.80;;;;;;4994551;28;20045;-85
2023/05/02 09:53:13;;;;;;;7.78;2.47;;;12.50;73.00;;;;;;5009930;28;20034;-85
2023/05/02 09:55:39;;;;;;;11.80;4.22;;;12.60;71.10;;;;;;5010953;28;20474;-85
2023/05/02 09:58:05;;;;;;;11.10;2.85;;;12.70;70.40;;;;;;5011423;28;20045;-85
2023/05/02 10:00:41;;;;;;;8.13;2.17;;;12.70;71.10;;;;;;5008662;28;20045;-85
2023/05/02 10:03:07;;;;;;;10.98;2.35;;;12.60;71.30;;;;;;5007562;28;20055;-85
2023/05/02 10:05:37;;;;;;;10.93;2.47;;;12.60;72.40;;;;;;5009779;28;20044;-85
2023/05/02 10:08:05;;;;;;;10.05;2.13;;;12.50;71.90;;;;;;4992878;28;20117;-85
2023/05/02 10:10:34;;;;;;;11.85;3.47;;;12.50;72.50;;;;;;5008565;28;20049;-85
2023/05/02 10:13:02;;;;;;;10.30;2.83;;;12.60;71.50;;;;;;5011141;28;20113;-85
2023/05/02 10:15:30;;;;;;;10.25;2.25;;;12.50;71.90;;;;;;4993392;28;20041;-85
2023/05/02 10:18:01;;;;;;;10.63;2.30;;;12.50;72.30;;;;;;5011746;28;20165;-85
2023/05/02 10:20:34;;;;;;;7.88;1.73;;;12.50;72.40;;;;;;4993079;28;20239;-85
2023/05/02 10:23:03;;;;;;;6.57;1.50;;;12.50;72.10;;;;;;4993916;28;20030;-85
2023/05/02 10:25:29;;;;;;;8.90;2.78;;;12.60;72.60;;;;;;5010517;28;20046;-85
2023/05/02 10:27:58;;;;;;;8.98;2.40;;;12.70;71.60;;;;;;5010686;28;20088;-85
2023/05/02 10:30:26;;;;;;;6.38;1.50;;;12.90;70.90;;;;;;5010504;28;20041;-85
2023/05/02 10:32:53;;;;;;;6.28;1.90;;;12.90;71.30;;;;;;4986460;28;20065;-85
2023/05/02 10:35:19;;;;;;;9.10;2.08;;;12.90;71.60;;;;;;4991055;28;20042;-85
2023/05/02 10:37:46;;;;;;;9.00;1.70;;;13.00;71.10;;;;;;4996622;28;20046;-85
2023/05/02 10:40:12;;;;;;;12.45;3.30;;;13.10;71.20;;;;;;5008848;28;20316;-86
2023/05/02 10:42:42;;;;;;;10.68;2.85;;;13.20;70.20;;;;;;5009256;28;20042;-85
2023/05/02 10:45:28;;;;;;;8.00;1.80;;;13.30;68.70;;;;;;5004871;28;20046;-85
2023/05/02 10:48:11;;;;;;;6.07;1.30;;;13.20;69.10;;;;;;5008743;28;20403;-85
2023/05/02 10:50:46;;;;;;;6.68;1.55;;;13.20;69.30;;;;;;5008518;28;20033;-86
2023/05/02 10:53:43;;;;;;;8.70;1.80;;;13.30;69.90;;;;;;5009479;28;20048;-85
2023/05/02 10:56:10;;;;;;;8.85;2.60;;;13.30;68.90;;;;;;4992297;28;20077;-85
2023/05/02 10:58:36;;;;;;;8.20;2.42;;;13.40;69.50;;;;;;5009597;28;20045;-84
2023/05/02 11:01:28;;;;;;;7.45;1.55;;;13.50;68.60;;;;;;4991937;28;20040;-84
2023/05/02 11:04:23;;;;;;;9.07;1.92;;;13.60;67.90;;;;;;5008195;28;20384;-85
2023/05/02 11:06:58;;;;;;;12.75;1.83;;;13.60;67.60;;;;;;4982184;28;20096;-85
2023/05/02 11:09:23;;;;;;;9.70;2.47;;;13.60;68.90;;;;;;4992961;28;20034;-85
2023/05/02 11:11:55;;;;;;;8.90;2.65;;;13.70;68.10;;;;;;4992469;28;20402;-85
2023/05/02 11:14:29;;;;;;;6.40;1.55;;;13.70;67.70;;;;;;5007762;28;20116;-85
2023/05/02 11:16:58;;;;;;;9.15;2.33;;;13.80;67.70;;;;;;5008772;28;20052;-85
2023/05/02 11:19:28;;;;;;;6.70;1.27;;;13.80;66.90;;;;;;5008298;28;20048;-85
2023/05/02 11:22:16;;;;;;;7.82;1.70;;;13.80;67.20;;;;;;5009195;28;20042;-85
2023/05/02 11:24:43;;;;;;;6.97;2.10;;;13.90;66.90;;;;;;4991428;28;20164;-84
2023/05/02 11:27:28;;;;;;;7.35;2.15;;;13.90;65.90;;;;;;5008857;28;20566;-85
2023/05/02 11:29:57;;;;;;;5.70;1.98;;;14.00;66.30;;;;;;5008136;28;20096;-85
2023/05/02 11:32:48;;;;;;;6.90;1.98;;;14.00;66.80;;;;;;4992731;28;20042;-85
2023/05/02 11:35:22;;;;;;;7.32;1.90;;;14.10;66.70;;;;;;4991952;28;20037;-84
2023/05/02 11:38:02;;;;;;;8.48;2.00;;;14.20;65.40;;;;;;5008443;28;20095;-85
2023/05/02 11:40:29;;;;;;;8.20;1.98;;;14.40;65.70;;;;;;4989831;28;20053;-84
2023/05/02 11:42:56;;;;;;;3.80;1.35;;;14.50;65.20;;;;;;5009000;28;20037;-84
2023/05/02 11:45:31;;;;;;;6.47;1.85;;;14.40;65.60;;;;;;5010115;28;20400;-85
2023/05/02 11:47:57;;;;;;;8.10;2.10;;;14.40;65.70;;;;;;5008786;28;20050;-85
2023/05/02 11:50:24;;;;;;;8.32;1.88;;;14.40;65.20;;;;;;4992813;28;20034;-85
2023/05/02 11:52:50;;;;;;;6.35;1.30;;;14.40;65.30;;;;;;5008783;28;20026;-85
2023/05/02 11:55:16;;;;;;;6.60;1.75;;;14.40;65.60;;;;;;4992964;28;20034;-85
2023/05/02 11:57:42;;;;;;;8.90;2.50;;;14.50;66.10;;;;;;4991847;28;20405;-85
2023/05/02 12:00:10;;;;;;;9.25;2.22;;;14.60;64.80;;;;;;5008058;28;20133;-84
2023/05/02 12:02:39;;;;;;;5.45;1.20;;;14.70;64.20;;;;;;5008049;28;20569;-84
2023/05/02 12:05:08;;;;;;;8.13;1.70;;;14.70;64.50;;;;;;5008647;28;20045;-85
2023/05/02 12:07:41;;;;;;;8.23;2.08;;;14.70;65.00;;;;;;5008191;28;20049;-85
2023/05/02 12:10:07;;;;;;;;;;;14.70;64.20;;;;;;5008089;28;20046;-85
2023/05/02 12:12:33;;;;;;;3.78;0.98;;;14.60;64.00;;;;;;5009022;28;20014;-85
2023/05/02 12:15:10;;;;;;;3.97;1.15;;;14.60;65.40;;;;;;4991693;28;20045;-85
2023/05/02 12:17:45;;;;;;;6.07;1.50;;;14.60;64.90;;;;;;5008632;28;20045;-85
2023/05/02 12:20:11;;;;;;;5.03;1.25;;;14.60;64.80;;;;;;5007812;28;20507;-84
2023/05/02 12:22:37;;;;;;;4.47;1.33;;;14.60;65.40;;;;;;5008482;28;20041;-85
2023/05/02 12:25:06;;;;;;;4.60;1.40;;;14.70;64.70;;;;;;5007944;28;20124;-84
2023/05/02 12:27:33;;;;;;;4.05;1.15;;;14.80;64.20;;;;;;5007731;28;20041;-85
2023/05/02 12:29:59;;;;;;;6.70;1.55;;;14.70;64.80;;;;;;5007380;28;20046;-85
2023/05/02 12:32:35;;;;;;;3.85;1.00;;;14.80;64.60;;;;;;5008253;28;20045;-85
2023/05/02 12:35:02;;;;;;;7.60;1.40;;;14.70;64.30;;;;;;4991829;28;20124;-85
2023/05/02 12:37:28;;;;;;;8.32;1.70;;;14.70;64.60;;;;;;5007667;28;20038;-84
2023/05/02 12:39:55;;;;;;;6.43;1.77;;;14.80;64.10;;;;;;5007652;28;20041;-85
2023/05/02 12:42:24;;;;;;;5.20;1.20;;;14.90;64.30;;;;;;5008468;28;20050;-85
2023/05/02 12:44:55;;;;;;;4.05;1.23;;;14.80;64.40;;;;;;4994548;28;20038;-85
2023/05/02 12:47:21;;;;;;;5.13;1.90;;;14.90;64.80;;;;;;4995069;28;20691;-86
2023/05/02 12:49:48;;;;;;;7.47;1.65;;;14.80;64.70;;;;;;4994888;28;20132;-85